Time;durP1;ratioP1;P1;durP2;ratioP2;P2;SDS_P1;SDS_P2;PMS_P1;PMS_P2;Temp;Humidity;BMP_temperature;BMP_pressure;BME280_temperature;BME280_humidity;BME280_pressure;Samples;Min_cycle;Max_cycle;Signal;HPM_P1;HPM_P2
2022/09/28 00:02:04;;;;;;;7.63;3.45;;;8.00;99.90;;;;;;5065567;28;20220;-74
2022/09/28 00:04:32;;;;;;;8.10;3.72;;;8.00;99.90;;;;;;5055470;28;20056;-74
2022/09/28 00:07:00;;;;;;;8.75;3.28;;;8.00;99.90;;;;;;5064499;28;20079;-74
2022/09/28 00:09:26;;;;;;;8.02;4.00;;;8.00;99.90;;;;;;5073423;28;20068;-73
2022/09/28 00:11:53;;;;;;;6.35;3.65;;;8.00;99.90;;;;;;5059652;28;20457;-73
2022/09/28 00:14:19;;;;;;;8.18;4.22;;;8.00;99.90;;;;;;5060817;28;20052;-73
2022/09/28 00:16:46;;;;;;;8.68;4.00;;;8.00;99.90;;;;;;5069119;28;20043;-74
2022/09/28 00:19:12;;;;;;;7.32;3.92;;;8.00;99.90;;;;;;5044718;28;20044;-74
2022/09/28 00:21:40;;;;;;;8.68;3.80;;;8.00;99.90;;;;;;5059122;28;20083;-72
2022/09/28 00:24:17;;;;;;;11.15;3.92;;;8.00;99.90;;;;;;5067309;28;20093;-73
2022/09/28 00:26:50;;;;;;;8.85;4.38;;;8.00;99.90;;;;;;5064191;28;20059;-72
2022/09/28 00:29:36;;;;;;;8.77;4.45;;;8.00;99.90;;;;;;5058429;28;20057;-72
2022/09/28 00:32:10;;;;;;;8.88;4.20;;;8.00;99.90;;;;;;5064509;28;20083;-72
2022/09/28 00:34:42;;;;;;;7.60;4.40;;;8.00;99.90;;;;;;5059252;28;20093;-72
2022/09/28 00:37:08;;;;;;;9.90;4.57;;;8.00;99.90;;;;;;5054637;28;20075;-73
2022/09/28 00:39:34;;;;;;;10.20;4.55;;;8.00;99.90;;;;;;5059248;28;20105;-73
2022/09/28 00:42:02;;;;;;;9.70;4.40;;;8.00;99.90;;;;;;5066481;28;20101;-73
2022/09/28 00:44:36;;;;;;;8.90;4.53;;;8.00;99.90;;;;;;5057108;28;20721;-72
2022/09/28 00:47:12;;;;;;;8.02;4.75;;;8.00;99.90;;;;;;5057273;28;20044;-73
2022/09/28 00:49:47;;;;;;;9.85;4.28;;;8.00;99.90;;;;;;5064016;28;20501;-73
2022/09/28 00:52:52;;;;;;;7.18;4.60;;;8.00;99.90;;;;;;5078514;28;20555;-73
2022/09/28 00:55:23;;;;;;;8.45;4.78;;;8.00;99.90;;;;;;5052939;28;20509;-72
2022/09/28 00:57:54;;;;;;;10.55;4.75;;;8.00;99.90;;;;;;5063990;28;20068;-73
2022/09/28 01:00:20;;;;;;;10.70;5.10;;;8.00;99.90;;;;;;5071394;28;20076;-72
2022/09/28 01:02:46;;;;;;;9.40;5.15;;;8.00;99.90;;;;;;5063263;28;20560;-73
2022/09/28 01:05:13;;;;;;;9.32;5.03;;;8.00;99.90;;;;;;5067358;28;20047;-73
2022/09/28 01:07:40;;;;;;;9.27;5.18;;;8.00;99.90;;;;;;5070164;28;20043;-73
2022/09/28 01:10:06;;;;;;;8.82;4.80;;;8.10;99.90;;;;;;5075937;28;20416;-73
2022/09/28 01:12:34;;;;;;;14.00;5.15;;;8.00;99.90;;;;;;5071293;28;20051;-73
2022/09/28 01:15:01;;;;;;;7.60;5.00;;;8.00;99.90;;;;;;5071001;28;20246;-73
2022/09/28 01:17:41;;;;;;;8.77;5.10;;;8.10;99.90;;;;;;5079183;28;20557;-73
2022/09/28 01:20:33;;;;;;;12.13;5.45;;;8.00;99.90;;;;;;5076185;28;20044;-73
2022/09/28 01:23:05;;;;;;;9.25;5.30;;;8.00;99.90;;;;;;5077387;28;20063;-73
2022/09/28 01:25:53;;;;;;;10.07;5.65;;;8.00;99.90;;;;;;5077191;28;20071;-73
2022/09/28 01:28:22;;;;;;;11.05;5.53;;;8.00;99.90;;;;;;5075895;28;20048;-73
2022/09/28 01:30:59;;;;;;;9.65;5.10;;;8.00;99.90;;;;;;5073049;28;20055;-73
2022/09/28 01:33:31;;;;;;;11.35;5.82;;;8.00;99.90;;;;;;5075944;28;20465;-73
2022/09/28 01:36:17;;;;;;;10.57;6.18;;;8.00;99.90;;;;;;5075404;28;20040;-73
2022/09/28 01:38:50;;;;;;;10.95;5.85;;;8.00;99.90;;;;;;5074955;28;20591;-73
2022/09/28 01:41:16;;;;;;;10.07;5.85;;;8.00;99.90;;;;;;5075584;28;20079;-73
2022/09/28 01:43:47;;;;;;;9.57;6.25;;;8.00;99.90;;;;;;5071023;28;20557;-72
2022/09/28 01:46:17;;;;;;;9.50;6.05;;;8.00;99.90;;;;;;5076935;28;20531;-73
2022/09/28 01:48:52;;;;;;;9.30;5.78;;;8.00;99.90;;;;;;5075321;28;20040;-73
2022/09/28 01:51:44;;;;;;;10.40;5.95;;;8.00;99.90;;;;;;5067334;28;20576;-73
2022/09/28 01:54:18;;;;;;;11.20;6.10;;;7.90;99.90;;;;;;5078445;28;20051;-73
2022/09/28 01:56:56;;;;;;;10.00;5.45;;;8.00;99.90;;;;;;5071138;28;20382;-72
2022/09/28 01:59:26;;;;;;;10.43;5.57;;;7.90;99.90;;;;;;5070798;28;20119;-73
2022/09/28 02:02:13;;;;;;;10.23;5.70;;;7.90;99.90;;;;;;5073547;28;20048;-73
2022/09/28 02:04:48;;;;;;;9.45;6.20;;;8.00;99.90;;;;;;5076611;28;20042;-72
2022/09/28 02:07:31;;;;;;;10.32;6.40;;;8.30;99.90;;;;;;5071118;28;20087;-73
2022/09/28 02:10:04;;;;;;;9.98;6.68;;;7.90;99.90;;;;;;5071252;28;20041;-72
2022/09/28 02:12:59;;;;;;;13.38;6.55;;;7.90;99.90;;;;;;5073423;28;20114;-72
2022/09/28 02:15:38;;;;;;;11.65;6.78;;;7.90;99.90;;;;;;5067587;28;20045;-72
2022/09/28 02:18:04;;;;;;;12.10;6.25;;;7.90;99.90;;;;;;5070069;28;20574;-73
2022/09/28 02:20:33;;;;;;;12.40;6.20;;;8.00;99.90;;;;;;5070784;28;20513;-75
2022/09/28 02:23:00;;;;;;;9.88;6.07;;;7.90;99.90;;;;;;5074600;28;20405;-74
2022/09/28 02:25:39;;;;;;;9.23;6.00;;;7.90;99.90;;;;;;5077680;28;20052;-72
2022/09/28 02:28:08;;;;;;;12.50;5.90;;;7.90;99.90;;;;;;5074254;28;20044;-72
2022/09/28 02:30:37;;;;;;;10.52;6.40;;;7.90;99.90;;;;;;5075843;28;20040;-73
2022/09/28 02:33:24;;;;;;;10.75;7.00;;;7.90;99.90;;;;;;5072428;28;20048;-69
2022/09/28 02:35:50;;;;;;;11.15;6.22;;;7.90;99.90;;;;;;5071674;28;20195;-69
2022/09/28 02:38:16;;;;;;;13.48;6.32;;;7.90;99.90;;;;;;5076715;28;20043;-69
2022/09/28 02:40:54;;;;;;;8.50;5.55;;;7.90;99.90;;;;;;5076768;28;20040;-69
2022/09/28 02:43:28;;;;;;;11.40;6.90;;;7.90;99.90;;;;;;5077648;28;20126;-69
2022/09/28 02:46:22;;;;;;;13.18;6.68;;;7.90;99.90;;;;;;5079257;28;20048;-69
2022/09/28 02:49:07;;;;;;;15.27;6.18;;;7.80;99.90;;;;;;5076752;28;20115;-69
2022/09/28 02:51:55;;;;;;;11.35;5.72;;;7.80;99.90;;;;;;5076089;28;20037;-69
2022/09/28 02:54:33;;;;;;;16.10;7.10;;;7.80;99.90;;;;;;5072485;28;20052;-69
2022/09/28 02:57:14;;;;;;;10.45;6.03;;;7.80;99.90;;;;;;5073657;28;20493;-69
2022/09/28 02:59:43;;;;;;;;;;;7.80;99.90;;;;;;5073347;28;20036;-69
2022/09/28 03:02:25;;;;;;;9.93;5.88;;;7.80;99.90;;;;;;5076100;28;19924;-69
2022/09/28 03:05:18;;;;;;;11.73;6.18;;;7.70;99.90;;;;;;5075237;28;20095;-69
2022/09/28 03:08:14;;;;;;;12.15;6.38;;;7.70;99.90;;;;;;5070522;28;20058;-69
2022/09/28 03:11:01;;;;;;;9.75;6.60;;;7.70;99.90;;;;;;5075903;28;20055;-69
2022/09/28 03:13:28;;;;;;;9.88;5.75;;;7.70;99.90;;;;;;5069705;28;20052;-69
2022/09/28 03:16:15;;;;;;;11.20;5.90;;;7.70;99.90;;;;;;5073374;28;20028;-69
2022/09/28 03:18:41;;;;;;;11.18;6.47;;;7.60;99.90;;;;;;5071323;28;20040;-70
2022/09/28 03:21:10;;;;;;;11.48;6.43;;;7.60;99.90;;;;;;5069298;28;20082;-69
2022/09/28 03:23:35;;;;;;;11.23;6.40;;;7.60;99.90;;;;;;5071477;28;20118;-68
2022/09/28 03:26:01;;;;;;;9.90;6.20;;;7.60;99.90;;;;;;5073534;28;20115;-68
2022/09/28 03:28:28;;;;;;;9.55;6.32;;;7.50;99.90;;;;;;5075116;28;20671;-69
2022/09/28 03:30:54;;;;;;;13.25;6.85;;;7.50;99.90;;;;;;5076767;28;20043;-68
2022/09/28 03:33:20;;;;;;;11.40;6.47;;;7.50;99.90;;;;;;5075723;28;20429;-69
2022/09/28 03:35:49;;;;;;;10.23;6.07;;;7.50;99.90;;;;;;5085053;28;20041;-69
2022/09/28 03:38:17;;;;;;;10.98;5.93;;;7.50;99.90;;;;;;5078804;28;20051;-69
2022/09/28 03:40:43;;;;;;;9.55;6.22;;;7.50;99.90;;;;;;5072392;28;20521;-68
2022/09/28 03:43:09;;;;;;;9.40;6.28;;;7.50;99.90;;;;;;5072400;28;20098;-69
2022/09/28 03:45:35;;;;;;;9.85;6.50;;;7.50;99.90;;;;;;5073663;28;20040;-69
2022/09/28 03:48:00;;;;;;;10.07;5.82;;;7.40;99.90;;;;;;5072637;28;20044;-68
2022/09/28 03:50:26;;;;;;;11.80;6.57;;;7.50;99.90;;;;;;5068341;28;20044;-68
2022/09/28 03:52:52;;;;;;;9.23;6.30;;;7.40;99.90;;;;;;5072556;28;20028;-68
2022/09/28 03:55:17;;;;;;;10.25;6.20;;;7.40;99.90;;;;;;5074812;28;20051;-69
2022/09/28 03:57:43;;;;;;;10.07;6.35;;;7.40;99.90;;;;;;5053892;28;20035;-68
2022/09/28 04:00:09;;;;;;;12.43;6.95;;;7.40;99.90;;;;;;5074780;28;20488;-69
2022/09/28 04:02:35;;;;;;;9.65;6.28;;;7.40;99.90;;;;;;5070105;28;20040;-69
2022/09/28 04:05:01;;;;;;;12.80;7.32;;;7.40;99.90;;;;;;5075588;28;20052;-69
2022/09/28 04:07:27;;;;;;;11.18;6.90;;;7.40;99.90;;;;;;5077353;28;20047;-69
2022/09/28 04:09:52;;;;;;;12.40;7.07;;;7.70;99.90;;;;;;5072542;28;20040;-69
2022/09/28 04:12:18;;;;;;;19.00;8.73;;;7.30;99.90;;;;;;5068705;28;20455;-69
2022/09/28 04:14:44;;;;;;;13.05;7.97;;;7.30;99.90;;;;;;5074160;28;20598;-69
2022/09/28 04:17:10;;;;;;;17.08;7.95;;;7.40;99.90;;;;;;5076608;28;20047;-69
2022/09/28 04:19:35;;;;;;;21.83;7.95;;;7.40;99.90;;;;;;5072696;28;20497;-69
2022/09/28 04:22:01;;;;;;;16.33;7.97;;;7.30;99.90;;;;;;5067715;28;20058;-69
2022/09/28 04:24:27;;;;;;;14.18;7.07;;;7.60;99.90;;;;;;5074038;28;20113;-69
2022/09/28 04:29:14;;;;;;;11.63;7.78;;;7.30;99.90;;;;;;5080963;28;20531;-69
2022/09/28 04:29:41;;;;;;;13.65;7.70;;;7.60;99.90;;;;;;5078497;28;20075;-69
2022/09/28 04:32:08;;;;;;;12.48;7.05;;;7.30;99.90;;;;;;5076045;28;20044;-69
2022/09/28 04:34:34;;;;;;;13.55;7.95;;;7.30;99.90;;;;;;5080632;28;20578;-67
2022/09/28 04:36:59;;;;;;;11.73;8.40;;;7.30;99.90;;;;;;5080260;28;20040;-69
2022/09/28 04:39:25;;;;;;;12.90;8.07;;;7.80;99.90;;;;;;5077639;28;20508;-69
2022/09/28 04:41:51;;;;;;;11.38;7.20;;;7.30;99.90;;;;;;5070525;28;20072;-69
2022/09/28 04:44:16;;;;;;;13.05;7.63;;;7.30;99.90;;;;;;5077840;28;20051;-69
2022/09/28 04:46:42;;;;;;;15.13;7.88;;;7.30;99.90;;;;;;5076799;28;20044;-69
2022/09/28 04:49:09;;;;;;;10.27;7.00;;;7.30;99.90;;;;;;5079448;28;20041;-69
2022/09/28 04:51:35;;;;;;;12.38;7.68;;;7.30;99.90;;;;;;5069661;28;20056;-70
2022/09/28 04:54:01;;;;;;;12.07;7.47;;;7.30;99.90;;;;;;5081978;28;20109;-69
2022/09/28 04:56:26;;;;;;;11.07;7.35;;;7.30;99.90;;;;;;5078911;28;20071;-69
2022/09/28 04:58:52;;;;;;;11.18;6.65;;;7.30;99.90;;;;;;5073891;28;20316;-68
2022/09/28 05:01:19;;;;;;;14.32;7.70;;;7.30;99.90;;;;;;5069573;28;20065;-68
2022/09/28 05:03:45;;;;;;;11.95;6.82;;;7.40;99.90;;;;;;5074991;28;20029;-68
2022/09/28 05:06:14;;;;;;;12.35;7.10;;;7.40;99.90;;;;;;5077416;28;20071;-67
2022/09/28 05:08:41;;;;;;;10.85;6.75;;;7.80;99.90;;;;;;5075801;28;20036;-68
2022/09/28 05:11:09;;;;;;;12.27;7.18;;;7.40;99.90;;;;;;5074080;28;20060;-68
2022/09/28 05:13:44;;;;;;;11.48;7.65;;;7.50;99.90;;;;;;5073437;28;20659;-69
2022/09/28 05:16:10;;;;;;;11.35;6.82;;;7.40;99.90;;;;;;5074645;28;20106;-67
2022/09/28 05:18:36;;;;;;;10.73;7.15;;;7.40;99.90;;;;;;5076249;28;20043;-69
2022/09/28 05:21:10;;;;;;;15.77;7.65;;;7.40;99.90;;;;;;5071518;28;20044;-68
2022/09/28 05:23:35;;;;;;;11.65;6.70;;;7.40;99.90;;;;;;5099229;28;20482;-69
2022/09/28 05:26:03;;;;;;;10.38;7.20;;;7.40;99.90;;;;;;5061503;28;20067;-69
2022/09/28 05:28:31;;;;;;;10.75;7.22;;;7.40;99.90;;;;;;5056412;28;20101;-69
2022/09/28 05:31:01;;;;;;;12.95;6.97;;;7.40;99.90;;;;;;5053812;28;20051;-69
2022/09/28 05:33:27;;;;;;;11.50;7.18;;;7.40;99.90;;;;;;5045158;28;20041;-69
2022/09/28 05:35:53;;;;;;;10.95;7.28;;;7.40;99.90;;;;;;5047056;28;20056;-68
2022/09/28 05:38:19;;;;;;;11.50;7.15;;;7.40;99.90;;;;;;5051004;28;20025;-68
2022/09/28 05:40:44;;;;;;;10.82;7.47;;;7.40;99.90;;;;;;5060149;28;20041;-68
2022/09/28 05:43:10;;;;;;;10.25;7.10;;;7.40;99.90;;;;;;5060776;28;20053;-68
2022/09/28 05:45:36;;;;;;;10.52;6.57;;;7.40;99.90;;;;;;5059339;28;20178;-69
2022/09/28 05:48:01;;;;;;;9.77;6.65;;;7.50;99.90;;;;;;5057987;28;20047;-69
2022/09/28 05:50:27;;;;;;;12.10;6.90;;;7.40;99.90;;;;;;5056588;28;20513;-69
2022/09/28 05:52:57;;;;;;;10.77;6.85;;;7.40;99.90;;;;;;5059226;28;20037;-69
2022/09/28 05:55:23;;;;;;;10.40;6.53;;;7.50;99.90;;;;;;5044271;28;20048;-69
2022/09/28 05:57:49;;;;;;;13.43;7.50;;;7.40;99.90;;;;;;5063313;28;20055;-69
2022/09/28 06:00:14;;;;;;;10.95;7.18;;;7.50;99.90;;;;;;5057953;28;20676;-69
2022/09/28 06:02:40;;;;;;;13.75;7.53;;;7.40;99.90;;;;;;5061254;28;20051;-69
2022/09/28 06:05:06;;;;;;;12.93;7.30;;;7.40;99.90;;;;;;5061244;28;20632;-68
2022/09/28 06:07:32;;;;;;;11.15;6.50;;;7.40;99.90;;;;;;5055422;28;20032;-69
2022/09/28 06:09:58;;;;;;;10.52;6.53;;;7.40;99.90;;;;;;5061732;28;20046;-68
2022/09/28 06:12:24;;;;;;;9.88;6.80;;;7.40;99.90;;;;;;5056657;28;20044;-69
2022/09/28 06:14:50;;;;;;;10.23;6.38;;;7.40;99.90;;;;;;5060140;28;20049;-69
2022/09/28 06:17:16;;;;;;;10.63;6.47;;;7.40;99.90;;;;;;5058249;28;20059;-69
2022/09/28 06:19:42;;;;;;;13.57;6.30;;;7.40;99.90;;;;;;5062197;28;20055;-69
2022/09/28 06:22:08;;;;;;;11.32;7.15;;;7.50;99.90;;;;;;5063067;28;20489;-69
2022/09/28 06:24:34;;;;;;;11.15;6.88;;;7.40;99.90;;;;;;5059619;28;20055;-68
2022/09/28 06:27:00;;;;;;;11.82;7.00;;;7.40;99.90;;;;;;5063753;28;20044;-69
2022/09/28 06:29:25;;;;;;;11.35;7.35;;;7.40;99.90;;;;;;5062350;28;20094;-69
2022/09/28 06:31:51;;;;;;;12.90;7.65;;;7.40;99.90;;;;;;5061467;28;20041;-69
2022/09/28 06:34:17;;;;;;;12.82;7.22;;;7.40;99.90;;;;;;5062674;28;20492;-69
2022/09/28 06:36:43;;;;;;;10.43;6.88;;;7.50;99.90;;;;;;5061999;28;20127;-69
2022/09/28 06:39:09;;;;;;;11.63;7.63;;;7.50;99.90;;;;;;5061656;28;20040;-69
2022/09/28 06:41:35;;;;;;;12.13;7.90;;;7.50;99.90;;;;;;5062371;28;21277;-68
2022/09/28 06:44:02;;;;;;;11.55;7.32;;;7.60;99.90;;;;;;5060414;28;20098;-69
2022/09/28 06:46:30;;;;;;;11.57;7.30;;;7.60;99.90;;;;;;5061494;28;20045;-69
2022/09/28 06:48:56;;;;;;;10.80;6.90;;;8.10;99.90;;;;;;5058551;28;20383;-69
2022/09/28 06:51:21;;;;;;;12.98;7.65;;;7.60;99.90;;;;;;5060735;28;20048;-68
2022/09/28 06:53:47;;;;;;;15.55;7.88;;;7.70;99.90;;;;;;5059044;28;20520;-69
2022/09/28 06:56:13;;;;;;;11.63;7.60;;;7.80;99.90;;;;;;5059780;28;20048;-68
2022/09/28 06:58:39;;;;;;;12.15;7.75;;;7.90;99.90;;;;;;5058756;28;20048;-69
2022/09/28 07:01:04;;;;;;;10.75;6.57;;;8.00;99.90;;;;;;5056698;28;20451;-70
2022/09/28 07:03:30;;;;;;;10.00;5.97;;;8.20;99.90;;;;;;5057328;28;20048;-70
2022/09/28 07:05:56;;;;;;;11.15;5.90;;;8.30;99.90;;;;;;5061334;28;20040;-70
2022/09/28 07:08:24;;;;;;;10.70;6.22;;;8.50;99.90;;;;;;5057629;28;20505;-70
2022/09/28 07:10:57;;;;;;;9.48;5.47;;;8.60;99.90;;;;;;5056611;28;20152;-70
2022/09/28 07:13:25;;;;;;;10.38;5.15;;;8.80;99.90;;;;;;5058125;28;20154;-69
2022/09/28 07:15:55;;;;;;;8.35;4.97;;;9.00;99.90;;;;;;5060424;28;20055;-68
2022/09/28 07:18:20;;;;;;;11.93;5.22;;;9.10;99.90;;;;;;5059814;28;20051;-69
2022/09/28 07:20:46;;;;;;;8.05;4.32;;;9.30;99.90;;;;;;5055814;28;20044;-70
2022/09/28 07:23:12;;;;;;;7.03;4.30;;;9.40;99.90;;;;;;5060383;28;20537;-70
2022/09/28 07:25:39;;;;;;;9.73;4.30;;;9.50;99.90;;;;;;5058668;28;20126;-70
2022/09/28 07:28:05;;;;;;;8.60;4.63;;;9.60;99.90;;;;;;5060182;28;20049;-70
2022/09/28 07:30:35;;;;;;;8.98;4.72;;;9.70;99.90;;;;;;5059314;28;20556;-70
2022/09/28 07:33:05;;;;;;;9.85;4.60;;;9.80;99.90;;;;;;5058248;28;20045;-70
2022/09/28 07:35:33;;;;;;;8.43;3.85;;;10.10;99.90;;;;;;5061107;28;20047;-70
2022/09/28 07:38:04;;;;;;;9.52;4.30;;;10.10;99.90;;;;;;5058330;28;20410;-69
2022/09/28 07:43:19;;;;;;;9.43;4.28;;;10.40;99.90;;;;;;5056817;28;20076;-69
2022/09/28 07:45:49;;;;;;;6.55;3.63;;;10.50;99.90;;;;;;5058164;28;20127;-70
2022/09/28 07:48:16;;;;;;;6.30;3.40;;;10.60;99.90;;;;;;5058372;28;20048;-71
2022/09/28 07:50:46;;;;;;;9.00;3.67;;;10.70;99.90;;;;;;5056422;28;20037;-70
2022/09/28 07:53:12;;;;;;;6.80;3.53;;;10.80;99.90;;;;;;5056819;28;20132;-70
2022/09/28 07:55:38;;;;;;;7.68;3.08;;;11.00;99.90;;;;;;5056105;28;20674;-70
2022/09/28 07:58:03;;;;;;;7.88;3.33;;;11.10;99.90;;;;;;5055594;28;20473;-70
2022/09/28 08:00:33;;;;;;;6.05;3.15;;;11.20;99.90;;;;;;5053902;28;20121;-70
2022/09/28 08:03:00;;;;;;;6.13;3.33;;;11.30;99.90;;;;;;5054119;28;20139;-71
2022/09/28 08:05:30;;;;;;;8.55;3.70;;;11.40;99.90;;;;;;5058000;28;20405;-70
2022/09/28 08:07:57;;;;;;;5.60;3.47;;;11.50;99.90;;;;;;5059316;28;20041;-70
2022/09/28 08:10:24;;;;;;;6.30;3.42;;;11.60;99.90;;;;;;5059205;28;20056;-70
2022/09/28 08:12:59;;;;;;;5.57;3.53;;;11.70;99.90;;;;;;5054337;28;20052;-70
2022/09/28 08:15:26;;;;;;;8.15;3.60;;;11.70;99.90;;;;;;5056429;28;20048;-69
2022/09/28 08:17:51;;;;;;;7.85;4.45;;;11.70;99.90;;;;;;5050332;28;20642;-70
2022/09/28 08:23:06;;;;;;;7.22;3.78;;;11.90;99.90;;;;;;5061678;28;20465;-70
2022/09/28 08:25:37;;;;;;;5.95;3.55;;;12.00;99.90;;;;;;5063980;28;20413;-71
2022/09/28 08:28:05;;;;;;;6.90;3.47;;;12.00;99.90;;;;;;5062168;28;20059;-71
2022/09/28 08:30:30;;;;;;;7.25;3.83;;;12.10;99.90;;;;;;5063233;28;20037;-71
2022/09/28 08:32:56;;;;;;;5.95;3.13;;;12.20;99.90;;;;;;5058062;28;20309;-71
2022/09/28 08:35:24;;;;;;;5.82;2.75;;;12.30;99.90;;;;;;5062598;28;20086;-71
2022/09/28 08:37:52;;;;;;;4.60;2.55;;;12.30;99.90;;;;;;5057597;28;20058;-71
2022/09/28 08:40:24;;;;;;;7.55;2.55;;;12.40;99.90;;;;;;5054245;28;20071;-70
2022/09/28 08:43:00;;;;;;;6.57;2.25;;;12.40;99.90;;;;;;5085314;27;20079;-71
2022/09/28 08:45:28;;;;;;;6.43;2.00;;;12.50;99.90;;;;;;5055266;28;20407;-70
2022/09/28 08:51:14;;;;;;;4.95;2.30;;;12.60;99.90;;;;;;5053864;28;20980;-70
2022/09/28 08:54:02;;;;;;;5.47;2.40;;;12.70;99.90;;;;;;5063819;28;20047;-70
2022/09/28 08:56:34;;;;;;;5.53;2.45;;;12.70;99.90;;;;;;5060219;28;20428;-70
2022/09/28 08:59:03;;;;;;;6.15;2.60;;;12.80;99.90;;;;;;5060698;28;20100;-70
2022/09/28 09:01:37;;;;;;;6.00;2.35;;;12.80;99.90;;;;;;5060588;28;20563;-70
2022/09/28 09:04:05;;;;;;;5.13;2.10;;;12.90;99.90;;;;;;5060015;28;20048;-70
2022/09/28 09:07:15;;;;;;;5.32;2.00;;;12.90;99.90;;;;;;5060530;28;20041;-70
2022/09/28 09:10:09;;;;;;;10.85;2.25;;;12.90;99.90;;;;;;5060440;28;20090;-70
2022/09/28 09:12:43;;;;;;;2.47;1.40;;;12.90;99.90;;;;;;5062684;28;20040;-71
2022/09/28 09:15:54;;;;;;;3.42;1.02;;;13.00;99.90;;;;;;5052419;28;20765;-71
2022/09/28 09:18:42;;;;;;;2.65;1.08;;;13.00;99.90;;;;;;5058511;28;20419;-71
2022/09/28 09:21:20;;;;;;;4.93;1.73;;;13.10;99.90;;;;;;5061612;28;20040;-71
2022/09/28 09:24:00;;;;;;;3.75;1.48;;;13.10;99.90;;;;;;5062740;28;20452;-71
2022/09/28 09:26:39;;;;;;;7.13;2.35;;;13.10;99.90;;;;;;5060494;28;20040;-70
2022/09/28 09:29:08;;;;;;;3.80;1.10;;;13.00;99.90;;;;;;5055468;28;20036;-70
2022/09/28 09:31:43;;;;;;;4.00;0.88;;;13.00;99.90;;;;;;5056930;28;20323;-70
2022/09/28 09:34:44;;;;;;;4.18;1.10;;;12.90;99.90;;;;;;5062089;28;20571;-71
2022/09/28 09:37:16;;;;;;;5.13;1.02;;;12.80;99.90;;;;;;5061643;28;20068;-71
2022/09/28 09:40:03;;;;;;;3.63;1.10;;;12.80;99.90;;;;;;5062863;28;20067;-71
2022/09/28 09:42:41;;;;;;;2.83;1.20;;;12.80;99.90;;;;;;5062696;28;20102;-71
2022/09/28 09:45:41;;;;;;;5.97;1.10;;;12.70;99.90;;;;;;5062360;28;20049;-70
2022/09/28 09:48:25;;;;;;;2.70;1.10;;;12.70;99.90;;;;;;5058826;28;20539;-71
2022/09/28 09:50:56;;;;;;;3.05;0.90;;;12.70;99.90;;;;;;5060447;28;20412;-72
2022/09/28 09:53:40;;;;;;;2.22;1.00;;;12.70;99.90;;;;;;5063229;28;20037;-71
2022/09/28 09:56:13;;;;;;;4.43;0.93;;;12.70;99.90;;;;;;5056544;28;20049;-71
2022/09/28 09:58:46;;;;;;;3.10;1.00;;;12.70;99.90;;;;;;5049488;28;20046;-71
2022/09/28 10:01:17;;;;;;;3.03;0.73;;;12.70;99.90;;;;;;5060148;28;20045;-71
2022/09/28 10:03:47;;;;;;;3.20;0.77;;;12.80;99.90;;;;;;5060484;28;20462;-71
2022/09/28 10:06:26;;;;;;;2.65;0.70;;;12.70;99.90;;;;;;5059089;28;20044;-72
2022/09/28 10:09:03;;;;;;;4.00;0.90;;;12.80;99.90;;;;;;5052487;28;20040;-71
2022/09/28 10:11:53;;;;;;;3.42;0.68;;;12.80;99.90;;;;;;5054751;28;20447;-71
2022/09/28 10:14:23;;;;;;;3.58;0.80;;;12.80;99.90;;;;;;5050263;28;20130;-71
2022/09/28 10:16:52;;;;;;;2.57;0.70;;;12.90;99.90;;;;;;5054784;28;20086;-71
2022/09/28 10:19:20;;;;;;;3.42;0.60;;;12.90;99.90;;;;;;5061810;28;20479;-71
2022/09/28 10:21:50;;;;;;;2.78;0.70;;;13.00;99.90;;;;;;5058838;28;20045;-71
2022/09/28 10:24:33;;;;;;;4.05;0.80;;;13.10;99.90;;;;;;5059272;28;20499;-70
2022/09/28 10:27:12;;;;;;;3.97;0.98;;;13.20;99.90;;;;;;5055709;28;20053;-71
2022/09/28 10:29:49;;;;;;;3.60;0.80;;;13.30;99.90;;;;;;5047682;28;20044;-70
2022/09/28 10:32:35;;;;;;;2.60;0.88;;;13.30;99.90;;;;;;5058579;28;20079;-71
2022/09/28 10:35:19;;;;;;;2.15;0.80;;;13.40;99.90;;;;;;5062219;28;20040;-71
2022/09/28 10:37:58;;;;;;;1.83;0.80;;;13.40;99.90;;;;;;5060742;28;20199;-71
2022/09/28 10:40:36;;;;;;;2.08;0.70;;;13.40;99.90;;;;;;5062604;28;20086;-71
2022/09/28 10:43:06;;;;;;;1.77;0.60;;;13.40;99.90;;;;;;5060420;28;20036;-71
2022/09/28 10:45:36;;;;;;;0.77;0.50;;;13.40;99.90;;;;;;5055625;28;20048;-72
2022/09/28 10:48:13;;;;;;;1.65;0.60;;;13.30;99.90;;;;;;5057684;28;20041;-72
2022/09/28 10:50:41;;;;;;;1.00;0.50;;;13.40;99.90;;;;;;5060194;28;20076;-72
2022/09/28 10:53:19;;;;;;;3.20;0.80;;;13.30;99.90;;;;;;5052950;28;20393;-72
2022/09/28 10:56:09;;;;;;;3.63;0.65;;;13.20;99.90;;;;;;5055681;28;20033;-71
2022/09/28 10:58:40;;;;;;;2.33;0.63;;;13.20;99.90;;;;;;5050907;28;20107;-72
2022/09/28 11:01:20;;;;;;;2.90;0.60;;;13.20;99.90;;;;;;5054132;28;20209;-74
2022/09/28 11:04:15;;;;;;;2.10;0.60;;;13.20;99.90;;;;;;5050489;28;20044;-74
2022/09/28 11:06:41;;;;;;;2.38;0.60;;;13.20;99.90;;;;;;5050058;28;20501;-74
2022/09/28 11:09:29;;;;;;;1.67;0.60;;;13.20;99.90;;;;;;5051583;28;20140;-73
2022/09/28 11:11:56;;;;;;;2.78;0.88;;;13.20;99.90;;;;;;5047293;28;20098;-73
2022/09/28 11:14:34;;;;;;;2.90;0.60;;;13.10;99.90;;;;;;5048918;28;20072;-74
2022/09/28 11:17:25;;;;;;;1.75;0.50;;;13.10;99.90;;;;;;5058812;28;20081;-74
2022/09/28 11:19:52;;;;;;;1.98;0.50;;;13.10;99.90;;;;;;5060917;28;20552;-73
2022/09/28 11:22:22;;;;;;;4.38;0.70;;;13.10;99.90;;;;;;5044245;28;20443;-73
2022/09/28 11:24:49;;;;;;;2.25;0.70;;;13.10;99.90;;;;;;5061302;28;20557;-73
2022/09/28 11:27:26;;;;;;;3.13;0.60;;;13.20;99.90;;;;;;5059641;28;20144;-73
2022/09/28 11:29:58;;;;;;;2.95;0.60;;;13.20;99.90;;;;;;5056798;28;20530;-73
2022/09/28 11:32:29;;;;;;;2.17;0.60;;;13.40;99.90;;;;;;5060756;28;20090;-73
2022/09/28 11:34:58;;;;;;;3.47;0.85;;;13.40;99.90;;;;;;5051447;28;21127;-73
2022/09/28 11:37:52;;;;;;;1.98;0.60;;;13.50;99.90;;;;;;5048050;28;20044;-74
2022/09/28 11:40:42;;;;;;;1.95;0.80;;;13.60;99.90;;;;;;5056344;28;20083;-73
2022/09/28 11:44:05;;;;;;;1.67;0.80;;;13.80;99.90;;;;;;5053304;28;20029;-73
2022/09/28 11:46:39;;;;;;;3.40;1.00;;;13.90;99.90;;;;;;5004481;28;20042;-73
2022/09/28 11:49:29;;;;;;;2.70;0.70;;;14.00;99.90;;;;;;5060836;28;20163;-73
2022/09/28 11:52:00;;;;;;;2.00;0.50;;;14.10;99.90;;;;;;5047687;28;20087;-73
2022/09/28 11:54:41;;;;;;;2.58;0.30;;;14.20;99.90;;;;;;5047682;28;20074;-73
2022/09/28 11:57:15;;;;;;;2.13;0.45;;;14.30;99.90;;;;;;5055647;28;20394;-73
2022/09/28 12:00:00;;;;;;;1.08;0.30;;;14.20;99.90;;;;;;5064923;28;20044;-73
2022/09/28 12:02:52;;;;;;;3.00;0.55;;;14.10;99.90;;;;;;5065895;28;20131;-72
2022/09/28 12:05:25;;;;;;;1.15;0.30;;;14.00;99.90;;;;;;5050775;28;20052;-73
2022/09/28 12:08:03;;;;;;;0.95;0.40;;;14.00;99.90;;;;;;5058429;28;20051;-73
2022/09/28 12:10:42;;;;;;;1.05;0.38;;;13.90;99.90;;;;;;5060991;28;20045;-73
2022/09/28 12:13:26;;;;;;;1.15;0.35;;;13.90;99.90;;;;;;5059892;28;20543;-73
2022/09/28 12:15:54;;;;;;;2.75;0.30;;;13.80;99.90;;;;;;5060147;28;20044;-73
2022/09/28 12:18:34;;;;;;;1.17;0.22;;;13.80;99.90;;;;;;5064344;28;20139;-73
2022/09/28 12:21:26;;;;;;;1.17;0.30;;;13.80;99.90;;;;;;5059193;28;20048;-71
2022/09/28 12:23:55;;;;;;;0.57;0.20;;;13.80;99.90;;;;;;5059237;28;20037;-73
2022/09/28 12:26:40;;;;;;;2.10;0.50;;;13.90;99.90;;;;;;5065155;28;20580;-73
2022/09/28 12:29:14;;;;;;;2.03;0.32;;;13.90;99.90;;;;;;5062031;28;20056;-73
2022/09/28 12:31:58;;;;;;;1.52;0.50;;;14.00;99.90;;;;;;5061560;28;20116;-73
2022/09/28 12:34:24;;;;;;;2.58;0.70;;;14.00;99.90;;;;;;5060093;28;20052;-72
2022/09/28 12:37:11;;;;;;;2.55;0.80;;;14.00;99.90;;;;;;5057447;28;20045;-72
2022/09/28 12:39:45;;;;;;;4.95;0.93;;;14.00;99.90;;;;;;5059277;28;20124;-73
2022/09/28 12:42:45;;;;;;;3.72;0.80;;;14.00;99.90;;;;;;5062382;28;20056;-73
2022/09/28 12:45:29;;;;;;;1.48;0.43;;;13.90;99.90;;;;;;5056915;28;20072;-72
2022/09/28 12:48:16;;;;;;;2.38;0.50;;;13.80;99.90;;;;;;5054118;28;20040;-73
2022/09/28 12:51:14;;;;;;;2.00;0.40;;;13.80;99.90;;;;;;5056167;28;20048;-74
2022/09/28 12:54:13;;;;;;;1.38;0.40;;;13.70;99.90;;;;;;5062172;28;20393;-73
2022/09/28 12:57:02;;;;;;;2.40;0.30;;;13.70;99.90;;;;;;5048598;28;20147;-73
2022/09/28 12:59:35;;;;;;;1.13;0.40;;;13.60;99.90;;;;;;5057565;28;20056;-72
2022/09/28 13:02:23;;;;;;;0.88;0.30;;;13.70;99.90;;;;;;5054417;28;20048;-72
2022/09/28 13:04:52;;;;;;;0.80;0.20;;;13.70;99.90;;;;;;5061884;28;20048;-72
2022/09/28 13:07:36;;;;;;;0.65;0.20;;;13.60;99.90;;;;;;5055834;28;20045;-73
2022/09/28 13:10:33;;;;;;;1.25;0.30;;;13.70;99.90;;;;;;5049203;28;20053;-73
2022/09/28 13:13:17;;;;;;;0.63;0.20;;;13.70;99.90;;;;;;5058379;28;20169;-72
2022/09/28 13:16:07;;;;;;;0.40;0.10;;;13.70;99.90;;;;;;5054560;28;20048;-71
2022/09/28 13:19:10;;;;;;;2.60;0.30;;;13.70;99.90;;;;;;5057612;28;20037;-71
2022/09/28 13:21:45;;;;;;;3.60;0.55;;;13.70;99.90;;;;;;5087776;28;21652;-72
2022/09/28 13:24:23;;;;;;;1.75;0.20;;;13.70;99.90;;;;;;5060322;28;20049;-71
2022/09/28 13:26:50;;;;;;;1.23;0.30;;;13.70;99.90;;;;;;5053541;28;20056;-72
2022/09/28 13:29:18;;;;;;;2.25;0.30;;;13.70;99.90;;;;;;5056005;28;20079;-72